Terminal Aerodrome Forecast
Issued by NWS Lake Charles, LA

Home | Current Version | Previous Version | Text Only | Print | Product List | Glossary On
Versions: 1 2 3 4 5 6 7 8 9 10 11 12 13 14 15 16 17 18 19 20 21 22 23 24 25
000
FTUS44 KLCH 271400 AAA
TAFARA
TAF AMD
KARA 271400Z 2714/2812 19007KT P6SM VCSH SCT040 OVC070
      TEMPO 2715/2718 4SM -TSRA OVC030CB
     FM271800 22010KT P6SM -TSRA BKN025 OVC040CB
     FM280200 VRB05KT P6SM BKN250=

USA.gov is the U.S. government's official web portal to all federal, state and local government web resources and services.